createdAt,value
2019-03-23T00:00:13.590Z,101048.50
2019-03-23T00:03:19.534Z,101045.69
2019-03-23T00:06:30.730Z,101048.70
2019-03-23T00:09:29.190Z,101057.00
2019-03-23T00:12:33.347Z,101050.54
2019-03-23T00:15:37.753Z,101059.91
2019-03-23T00:18:41.445Z,101059.57
2019-03-23T00:21:45.200Z,101057.81
2019-03-23T00:24:49.788Z,101061.02
2019-03-23T00:27:54.192Z,101062.66
2019-03-23T00:30:57.914Z,101064.99
2019-03-23T00:34:01.622Z,101066.91
2019-03-23T00:37:07.270Z,101077.87
2019-03-23T00:40:12.767Z,101079.73
2019-03-23T00:43:16.471Z,101085.81
2019-03-23T00:46:20.644Z,101085.81
2019-03-23T00:49:24.439Z,101089.91
2019-03-23T00:52:28.562Z,101099.36
2019-03-23T00:55:32.300Z,101103.55
2019-03-23T00:58:36.006Z,101108.14
2019-03-23T01:01:40.199Z,101115.56
2019-03-23T01:04:44.655Z,101119.59
2019-03-23T01:07:48.509Z,101121.41
2019-03-23T01:10:52.991Z,101125.24
2019-03-23T01:13:57.050Z,101128.33
2019-03-23T01:17:02.486Z,101129.27
2019-03-23T01:20:07.836Z,101124.84
2019-03-23T01:23:11.824Z,101130.70
2019-03-23T01:26:17.210Z,101125.58
2019-03-23T01:29:20.962Z,101124.91
2019-03-23T01:32:26.160Z,101127.92
2019-03-23T01:35:29.876Z,101137.60
2019-03-23T01:38:34.560Z,101127.16
2019-03-23T01:41:38.303Z,101123.86
2019-03-23T01:44:42.002Z,101131.45
2019-03-23T01:47:45.719Z,101123.68
2019-03-23T01:50:49.443Z,101125.30
2019-03-23T01:53:53.503Z,101127.17
2019-03-23T01:56:57.238Z,101128.14
2019-03-23T02:00:01.330Z,101127.78
2019-03-23T02:03:05.279Z,101129.98
2019-03-23T02:06:09.007Z,101130.66
2019-03-23T02:09:12.719Z,101134.35
2019-03-23T02:12:16.761Z,101137.52
2019-03-23T02:15:20.464Z,101142.17
2019-03-23T02:18:24.558Z,101138.20
2019-03-23T02:21:29.487Z,101132.70
2019-03-23T02:24:33.525Z,101137.55
2019-03-23T02:27:37.267Z,101143.41
2019-03-23T02:30:41.733Z,101147.03
2019-03-23T02:33:45.440Z,101146.52
2019-03-23T02:36:50.045Z,101148.46
2019-03-23T02:39:54.131Z,101147.12
2019-03-23T02:42:59.629Z,101157.34
2019-03-23T02:46:03.354Z,101165.45
2019-03-23T02:49:07.066Z,101168.55
2019-03-23T02:52:11.165Z,101180.05
2019-03-23T02:55:14.863Z,101173.86
2019-03-23T02:58:19.605Z,101172.17
2019-03-23T03:01:24.198Z,101176.77
2019-03-23T03:04:29.876Z,101173.35
2019-03-23T03:07:41.790Z,101188.39
2019-03-23T03:10:40.912Z,101192.39
2019-03-23T03:13:44.642Z,101191.78
2019-03-23T03:16:48.687Z,101196.80
2019-03-23T03:19:53.109Z,101201.22
2019-03-23T03:22:57.663Z,101203.28
2019-03-23T03:26:02.929Z,101213.83
2019-03-23T03:29:06.630Z,101214.38
2019-03-23T03:32:10.360Z,101209.52
2019-03-23T03:35:15.221Z,101215.27
2019-03-23T03:38:19.699Z,101217.16
2019-03-23T03:41:23.412Z,101217.70
2019-03-23T03:44:27.121Z,101223.06
2019-03-23T03:47:30.845Z,101228.56
2019-03-23T03:50:34.552Z,101236.54
2019-03-23T03:53:38.633Z,101234.02
2019-03-23T03:56:43.410Z,101233.53
2019-03-23T03:59:47.107Z,101234.14
2019-03-23T04:02:51.626Z,101228.84
2019-03-23T04:05:55.648Z,101235.98
2019-03-23T04:09:00.558Z,101246.47
2019-03-23T04:12:04.610Z,101247.31
2019-03-23T04:15:09.254Z,101246.55
2019-03-23T04:18:12.973Z,101239.44
2019-03-23T04:21:16.738Z,101237.20
2019-03-23T04:24:20.858Z,101246.58
2019-03-23T04:27:24.588Z,101248.53
2019-03-23T04:30:29.285Z,101251.44
2019-03-23T04:33:33.854Z,101251.44
2019-03-23T04:36:38.357Z,101256.83
2019-03-23T04:39:42.062Z,101254.63
2019-03-23T04:42:45.883Z,101243.52
2019-03-23T04:45:50.006Z,101251.41
2019-03-23T04:48:53.729Z,101248.34
2019-03-23T04:51:58.472Z,101254.16
2019-03-23T04:55:02.196Z,101260.16
2019-03-23T04:58:06.394Z,101273.61
2019-03-23T05:01:10.740Z,101263.28
2019-03-23T05:04:15.249Z,101273.23
2019-03-23T05:07:18.980Z,101275.98
2019-03-23T05:10:23.392Z,101291.39
2019-03-23T05:13:27.984Z,101299.82
2019-03-23T05:16:31.704Z,101299.89
2019-03-23T05:19:36.155Z,101298.54
2019-03-23T05:22:39.977Z,101291.07
2019-03-23T05:25:44.103Z,101289.09
2019-03-23T05:28:49.207Z,101287.96
2019-03-23T05:31:53.284Z,101284.39
2019-03-23T05:34:57.342Z,101287.80
2019-03-23T05:38:01.064Z,101300.16
2019-03-23T05:41:05.678Z,101301.16
2019-03-23T05:44:09.410Z,101298.80
2019-03-23T05:47:13.530Z,101297.94
2019-03-23T05:50:17.242Z,101314.23
2019-03-23T05:53:20.974Z,101318.84
2019-03-23T05:56:25.474Z,101319.95
2019-03-23T05:59:29.200Z,101316.48
2019-03-23T06:02:32.942Z,101326.66
2019-03-23T06:05:37.386Z,101331.52
2019-03-23T06:08:42.788Z,101331.51
2019-03-23T06:11:46.510Z,101333.34
2019-03-23T06:14:50.218Z,101334.14
2019-03-23T06:17:53.926Z,101347.84
2019-03-23T06:20:57.919Z,101346.16
2019-03-23T06:24:01.663Z,101345.31
2019-03-23T06:27:06.974Z,101350.58
2019-03-23T06:30:11.450Z,101350.17
2019-03-23T06:33:15.186Z,101347.95
2019-03-23T06:36:18.892Z,101356.73
2019-03-23T06:39:22.620Z,101367.76
2019-03-23T06:42:27.450Z,101368.58
2019-03-23T06:45:31.162Z,101373.43
2019-03-23T06:48:35.177Z,101360.73
2019-03-23T06:51:38.876Z,101363.74
2019-03-23T06:54:42.616Z,101364.19
2019-03-23T06:57:46.359Z,101368.64
2019-03-23T07:00:50.072Z,101369.47
2019-03-23T07:03:54.656Z,101370.70
2019-03-23T07:06:58.385Z,101372.11
2019-03-23T07:10:02.214Z,101372.11
2019-03-23T07:13:06.841Z,101368.50
2019-03-23T07:16:10.919Z,101358.49
2019-03-23T07:19:14.991Z,101368.59
2019-03-23T07:22:18.719Z,101371.20
2019-03-23T07:25:22.443Z,101376.97
2019-03-23T07:28:26.931Z,101379.13
2019-03-23T07:31:30.640Z,101381.78
2019-03-23T07:34:35.776Z,101384.83
2019-03-23T07:37:40.912Z,101388.81
2019-03-23T07:40:44.636Z,101390.09
2019-03-23T07:43:48.354Z,101391.86
2019-03-23T07:46:52.054Z,101393.59
2019-03-23T07:49:56.552Z,101392.27
2019-03-23T07:53:00.571Z,101389.95
2019-03-23T07:56:04.791Z,101395.67
2019-03-23T07:59:08.544Z,101391.39
2019-03-23T08:02:12.606Z,101402.48
2019-03-23T08:05:16.599Z,101397.66
2019-03-23T08:08:21.851Z,101398.92
2019-03-23T08:11:26.332Z,101394.04
2019-03-23T08:14:31.482Z,101407.69
2019-03-23T08:17:36.564Z,101401.11
2019-03-23T08:20:40.672Z,101407.33
2019-03-23T08:23:44.931Z,101401.50
2019-03-23T08:26:49.135Z,101394.41
2019-03-23T08:29:54.689Z,101394.34
2019-03-23T08:32:58.423Z,101392.61
2019-03-23T08:36:02.209Z,101402.41
2019-03-23T08:39:07.918Z,101400.15
2019-03-23T08:42:11.940Z,101402.71
2019-03-23T08:45:15.928Z,101404.07
2019-03-23T08:48:22.807Z,101408.59
2019-03-23T08:51:26.860Z,101412.08
2019-03-23T08:54:31.673Z,101410.80
2019-03-23T08:57:36.990Z,101411.70
2019-03-23T09:00:41.167Z,101409.03
2019-03-23T09:03:52.401Z,101411.20
2019-03-23T09:06:50.899Z,101407.69
2019-03-23T09:09:59.440Z,101409.55
2019-03-23T09:13:00.809Z,101412.62
2019-03-23T09:16:04.525Z,101407.69
2019-03-23T09:19:09.792Z,101408.05
2019-03-23T09:22:13.887Z,101408.05
2019-03-23T09:25:17.945Z,101409.20
2019-03-23T09:28:21.786Z,101413.37
2019-03-23T09:31:25.899Z,101409.81
2019-03-23T09:34:30.071Z,101411.49
2019-03-23T09:37:38.299Z,101413.77
2019-03-23T09:40:41.195Z,101427.81
2019-03-23T09:43:45.192Z,101420.83
2019-03-23T09:46:48.902Z,101433.65
2019-03-23T09:49:54.343Z,101428.80
2019-03-23T09:52:58.071Z,101433.63
2019-03-23T09:56:02.900Z,101448.94
2019-03-23T09:59:08.634Z,101446.38
2019-03-23T10:02:12.669Z,101446.79
2019-03-23T10:05:16.402Z,101442.74
2019-03-23T10:08:21.441Z,101448.97
2019-03-23T10:11:25.624Z,101446.47
2019-03-23T10:14:29.702Z,101452.57
2019-03-23T10:17:33.423Z,101456.89
2019-03-23T10:20:39.223Z,101451.55
2019-03-23T10:23:43.359Z,101455.97
2019-03-23T10:26:47.087Z,101450.45
2019-03-23T10:29:52.713Z,101453.09
2019-03-23T10:32:56.880Z,101453.53
2019-03-23T10:36:00.619Z,101449.92
2019-03-23T10:39:05.669Z,101444.58
2019-03-23T10:42:09.726Z,101448.05
2019-03-23T10:45:13.855Z,101446.83
2019-03-23T10:48:18.259Z,101446.00
2019-03-23T10:51:22.377Z,101443.76
2019-03-23T10:54:26.113Z,101452.91
2019-03-23T10:57:30.696Z,101452.88
2019-03-23T11:00:34.904Z,101448.05
2019-03-23T11:03:38.740Z,101450.73
2019-03-23T11:06:43.246Z,101450.27
2019-03-23T11:09:46.962Z,101439.49
2019-03-23T11:12:52.140Z,101431.17
2019-03-23T11:15:56.255Z,101435.38
2019-03-23T11:18:59.976Z,101433.13
2019-03-23T11:22:04.431Z,101439.71
2019-03-23T11:25:11.835Z,101444.19
2019-03-23T11:28:15.875Z,101445.55
2019-03-23T11:31:19.970Z,101447.58
2019-03-23T11:34:23.688Z,101447.27
2019-03-23T11:37:27.797Z,101453.84
2019-03-23T11:40:32.818Z,101452.69
2019-03-23T11:43:36.517Z,101456.52
2019-03-23T11:46:40.336Z,101455.22
2019-03-23T11:49:45.499Z,101458.73
2019-03-23T11:52:49.249Z,101461.44
2019-03-23T11:55:52.980Z,101456.72
2019-03-23T11:58:58.295Z,101457.64
2019-03-23T12:02:03.619Z,101458.33
2019-03-23T12:05:08.440Z,101462.92
2019-03-23T12:08:12.833Z,101464.63
2019-03-23T12:11:16.622Z,101461.69
2019-03-23T12:14:21.068Z,101454.80
2019-03-23T12:17:26.491Z,101449.38
2019-03-23T12:20:30.188Z,101447.79
2019-03-23T12:23:33.928Z,101443.69
2019-03-23T12:26:38.024Z,101443.44
2019-03-23T12:29:41.770Z,101450.63
2019-03-23T12:32:45.565Z,101451.34
2019-03-23T12:35:49.373Z,101452.98
2019-03-23T12:38:53.771Z,101448.78
2019-03-23T12:41:57.867Z,101456.84
2019-03-23T12:45:01.578Z,101455.59
2019-03-23T12:48:05.999Z,101453.01
2019-03-23T12:51:10.107Z,101448.73
2019-03-23T12:54:13.837Z,101440.42
2019-03-23T12:57:18.859Z,101439.91
2019-03-23T13:00:22.632Z,101438.02
2019-03-23T13:03:26.378Z,101441.55
2019-03-23T13:06:30.408Z,101445.66
2019-03-23T13:09:35.540Z,101445.74
2019-03-23T13:12:39.698Z,101452.86
2019-03-23T13:15:43.768Z,101446.76
2019-03-23T13:18:47.859Z,101449.09
2019-03-23T13:21:51.878Z,101445.94
2019-03-23T13:24:56.018Z,101444.75
2019-03-23T13:28:00.439Z,101437.99
2019-03-23T13:31:04.188Z,101439.33
2019-03-23T13:34:09.051Z,101434.02
2019-03-23T13:37:13.213Z,101424.86
2019-03-23T13:40:16.919Z,101429.67
2019-03-23T13:43:21.075Z,101429.30
2019-03-23T13:46:25.193Z,101423.78
2019-03-23T13:49:28.898Z,101433.10
2019-03-23T13:52:33.824Z,101427.95
2019-03-23T13:55:37.540Z,101424.70
2019-03-23T13:58:41.261Z,101419.38
2019-03-23T14:01:45.044Z,101425.12
2019-03-23T14:04:50.280Z,101426.20
2019-03-23T14:07:54.244Z,101417.77
2019-03-23T14:10:57.974Z,101422.19
2019-03-23T14:14:01.704Z,101419.62
2019-03-23T14:17:05.430Z,101417.19
2019-03-23T14:20:09.734Z,101422.36
2019-03-23T14:23:13.849Z,101414.31
2019-03-23T14:26:17.590Z,101415.54
2019-03-23T14:29:21.298Z,101413.67
2019-03-23T14:32:26.832Z,101417.24
2019-03-23T14:35:30.540Z,101416.34
2019-03-23T14:38:35.029Z,101418.72
2019-03-23T14:41:38.768Z,101421.38
2019-03-23T14:44:43.207Z,101422.78
2019-03-23T14:47:47.326Z,101423.25
2019-03-23T14:50:51.023Z,101427.07
2019-03-23T14:53:54.804Z,101430.50
2019-03-23T14:56:58.896Z,101427.90
2019-03-23T15:00:02.829Z,101426.05
2019-03-23T15:03:06.885Z,101430.71
2019-03-23T15:06:10.613Z,101428.18
2019-03-23T15:09:14.340Z,101426.70
2019-03-23T15:12:18.060Z,101426.21
2019-03-23T15:15:21.791Z,101429.73
2019-03-23T15:18:25.508Z,101432.84
2019-03-23T15:21:29.212Z,101439.95
2019-03-23T15:24:32.929Z,101437.28
2019-03-23T15:27:36.660Z,101429.81
2019-03-23T15:30:41.121Z,101426.27
2019-03-23T15:33:44.947Z,101424.81
2019-03-23T15:36:48.655Z,101429.61
2019-03-23T15:39:54.820Z,101429.66
2019-03-23T15:42:58.527Z,101430.41
2019-03-23T15:46:02.293Z,101432.56
2019-03-23T15:49:07.776Z,101433.42
2019-03-23T15:52:13.032Z,101426.05
2019-03-23T15:55:17.131Z,101433.16
2019-03-23T15:58:21.879Z,101434.55
2019-03-23T16:01:26.039Z,101431.08
2019-03-23T16:04:30.561Z,101432.84
2019-03-23T16:07:34.274Z,101437.88
2019-03-23T16:10:38.396Z,101435.97
2019-03-23T16:13:42.490Z,101434.81
2019-03-23T16:16:46.967Z,101433.01
2019-03-23T16:19:51.471Z,101433.05
2019-03-23T16:22:55.199Z,101431.23
2019-03-23T16:25:58.937Z,101431.68
2019-03-23T16:29:02.738Z,101434.78
2019-03-23T16:32:06.506Z,101426.85
2019-03-23T16:35:11.629Z,101433.05
2019-03-23T16:38:15.664Z,101422.88
2019-03-23T16:41:19.684Z,101427.67
2019-03-23T16:44:23.838Z,101424.64
2019-03-23T16:47:28.626Z,101421.60
2019-03-23T16:50:32.343Z,101423.39
2019-03-23T16:53:36.503Z,101422.98
2019-03-23T16:56:41.041Z,101423.89
2019-03-23T16:59:45.131Z,101424.78
2019-03-23T17:02:49.609Z,101418.89
2019-03-23T17:05:53.623Z,101419.83
2019-03-23T17:08:57.691Z,101426.98
2019-03-23T17:12:01.752Z,101419.84
2019-03-23T17:15:07.226Z,101423.02
2019-03-23T17:18:11.588Z,101418.07
2019-03-23T17:21:15.607Z,101417.75
2019-03-23T17:24:20.526Z,101418.12
2019-03-23T17:27:24.575Z,101423.44
2019-03-23T17:30:28.382Z,101422.69
2019-03-23T17:33:32.399Z,101416.16
2019-03-23T17:36:36.570Z,101419.20
2019-03-23T17:39:40.668Z,101426.23
2019-03-23T17:42:44.405Z,101431.94
2019-03-23T17:45:48.451Z,101430.61
2019-03-23T17:48:54.920Z,101434.16
2019-03-23T17:51:59.438Z,101437.75
2019-03-23T17:55:03.251Z,101439.98
2019-03-23T17:58:08.222Z,101443.13
2019-03-23T18:01:19.273Z,101434.77
2019-03-23T18:04:20.796Z,101442.63
2019-03-23T18:07:25.958Z,101439.52
2019-03-23T18:10:30.114Z,101442.19
2019-03-23T18:13:34.248Z,101441.69
2019-03-23T18:16:38.336Z,101447.56
2019-03-23T18:19:42.427Z,101444.91
2019-03-23T18:22:46.140Z,101445.34
2019-03-23T18:25:49.857Z,101447.11
2019-03-23T18:28:55.220Z,101448.44
2019-03-23T18:31:58.974Z,101453.32
2019-03-23T18:35:03.351Z,101451.16
2019-03-23T18:38:07.583Z,101459.97
2019-03-23T18:41:11.651Z,101450.28
2019-03-23T18:44:16.336Z,101447.20
2019-03-23T18:47:21.180Z,101456.95
2019-03-23T18:50:24.891Z,101456.55
2019-03-23T18:53:29.488Z,101461.98
2019-03-23T18:56:33.218Z,101461.39
2019-03-23T18:59:37.384Z,101470.79
2019-03-23T19:02:41.133Z,101462.33
2019-03-23T19:05:45.931Z,101458.77
2019-03-23T19:08:50.003Z,101466.81
2019-03-23T19:11:54.007Z,101463.59
2019-03-23T19:14:57.712Z,101470.39
2019-03-23T19:18:01.829Z,101465.53
2019-03-23T19:21:05.535Z,101464.25
2019-03-23T19:24:09.586Z,101469.08
2019-03-23T19:27:15.549Z,101474.39
2019-03-23T19:30:19.914Z,101469.95
2019-03-23T19:33:24.060Z,101481.47
2019-03-23T19:36:28.160Z,101474.78
2019-03-23T19:39:31.888Z,101473.45
2019-03-23T19:42:37.514Z,101470.41
2019-03-23T19:45:42.342Z,101479.64
2019-03-23T19:48:47.693Z,101483.79
2019-03-23T19:51:51.410Z,101475.82
2019-03-23T19:54:55.543Z,101475.33
2019-03-23T19:57:59.695Z,101483.34
2019-03-23T20:01:03.411Z,101482.36
2019-03-23T20:04:07.852Z,101483.88
2019-03-23T20:07:11.601Z,101476.80
2019-03-23T20:10:16.811Z,101481.53
2019-03-23T20:13:21.220Z,101485.17
2019-03-23T20:16:24.937Z,101477.63
2019-03-23T20:19:31.606Z,101485.61
2019-03-23T20:22:35.726Z,101486.62
2019-03-23T20:25:39.924Z,101490.97
2019-03-23T20:28:43.870Z,101481.22
2019-03-23T20:31:47.959Z,101484.63
2019-03-23T20:34:52.647Z,101487.42
2019-03-23T20:37:57.164Z,101482.41
2019-03-23T20:41:01.274Z,101484.22
2019-03-23T20:44:09.563Z,101489.59
2019-03-23T20:47:11.647Z,101486.48
2019-03-23T20:50:15.716Z,101481.67
2019-03-23T20:53:19.741Z,101478.07
2019-03-23T20:56:23.805Z,101474.14
2019-03-23T20:59:28.229Z,101475.42
2019-03-23T21:02:32.449Z,101467.94
2019-03-23T21:05:36.156Z,101474.59
2019-03-23T21:08:40.963Z,101475.96
2019-03-23T21:11:44.678Z,101466.35
2019-03-23T21:14:49.402Z,101461.00
2019-03-23T21:17:55.614Z,101461.27
2019-03-23T21:20:59.319Z,101464.54
2019-03-23T21:24:03.459Z,101464.50
2019-03-23T21:27:07.592Z,101452.94
2019-03-23T21:30:13.553Z,101451.61
2019-03-23T21:33:17.685Z,101449.05
2019-03-23T21:36:21.382Z,101451.67
2019-03-23T21:39:25.571Z,101445.95
2019-03-23T21:42:30.485Z,101442.36
2019-03-23T21:45:34.198Z,101448.61
2019-03-23T21:48:38.252Z,101450.47
2019-03-23T21:51:42.304Z,101437.91
2019-03-23T21:54:46.337Z,101442.95
2019-03-23T21:57:50.451Z,101438.96
2019-03-23T22:00:54.279Z,101437.19
2019-03-23T22:03:58.017Z,101435.29
2019-03-23T22:07:01.742Z,101433.56
2019-03-23T22:10:06.647Z,101426.09
2019-03-23T22:13:12.367Z,101436.22
2019-03-23T22:16:16.383Z,101439.36
2019-03-23T22:19:20.109Z,101436.84
2019-03-23T22:22:24.194Z,101441.22
2019-03-23T22:25:28.227Z,101428.83
2019-03-23T22:28:32.254Z,101440.73
2019-03-23T22:31:36.355Z,101433.75
2019-03-23T22:34:40.486Z,101432.42
2019-03-23T22:37:44.643Z,101427.59
2019-03-23T22:40:48.354Z,101423.08
2019-03-23T22:43:52.086Z,101421.27
2019-03-23T22:46:55.795Z,101422.19
2019-03-23T22:50:01.649Z,101416.39
2019-03-23T22:53:07.191Z,101420.88
2019-03-23T22:56:11.245Z,101412.86
2019-03-23T22:59:15.499Z,101412.95
2019-03-23T23:02:19.446Z,101409.53
2019-03-23T23:05:23.164Z,101406.84
2019-03-23T23:08:26.871Z,101407.20
2019-03-23T23:11:30.591Z,101403.83
2019-03-23T23:14:34.722Z,101398.04
2019-03-23T23:17:38.589Z,101396.34
2019-03-23T23:20:42.727Z,101398.92
2019-03-23T23:23:46.449Z,101403.75
2019-03-23T23:26:50.541Z,101396.71
2019-03-23T23:29:54.679Z,101395.17
2019-03-23T23:32:58.605Z,101391.48
2019-03-23T23:36:02.528Z,101393.17
2019-03-23T23:39:07.704Z,101398.08
2019-03-23T23:42:12.270Z,101402.54
2019-03-23T23:45:16.616Z,101400.81
2019-03-23T23:48:20.688Z,101401.21
2019-03-23T23:51:25.167Z,101398.19
2019-03-23T23:54:28.896Z,101382.59
2019-03-23T23:57:34.503Z,101383.97
